sensor_id;sensor_type;location;lat;lon;timestamp;temperature;humidity
20233;DHT22;37438;55.674;13.074;2022-09-27T00:01:51;11.80;99.90
20233;DHT22;37438;55.674;13.074;2022-09-27T00:04:55;11.70;99.90
20233;DHT22;37438;55.674;13.074;2022-09-27T00:08:01;11.60;99.90
20233;DHT22;37438;55.674;13.074;2022-09-27T00:11:10;11.60;99.90
20233;DHT22;37438;55.674;13.074;2022-09-27T00:14:16;11.60;99.90
20233;DHT22;37438;55.674;13.074;2022-09-27T00:17:21;11.60;99.90
20233;DHT22;37438;55.674;13.074;2022-09-27T00:20:25;11.50;99.90
20233;DHT22;37438;55.674;13.074;2022-09-27T00:23:30;11.50;99.90
20233;DHT22;37438;55.674;13.074;2022-09-27T00:26:34;11.50;99.90
20233;DHT22;37438;55.674;13.074;2022-09-27T00:29:38;11.40;99.90
20233;DHT22;37438;55.674;13.074;2022-09-27T00:32:43;11.40;99.90
20233;DHT22;37438;55.674;13.074;2022-09-27T00:35:47;11.40;99.90
20233;DHT22;37438;55.674;13.074;2022-09-27T00:38:52;11.30;99.90
20233;DHT22;37438;55.674;13.074;2022-09-27T00:41:57;11.30;99.90
20233;DHT22;37438;55.674;13.074;2022-09-27T00:45:12;11.30;99.90
20233;DHT22;37438;55.674;13.074;2022-09-27T00:48:21;11.20;99.90
20233;DHT22;37438;55.674;13.074;2022-09-27T00:51:27;11.20;99.90
20233;DHT22;37438;55.674;13.074;2022-09-27T00:54:33;11.20;99.90
20233;DHT22;37438;55.674;13.074;2022-09-27T00:57:41;11.10;99.90
20233;DHT22;37438;55.674;13.074;2022-09-27T01:00:50;11.10;99.90
20233;DHT22;37438;55.674;13.074;2022-09-27T01:07:06;11.10;99.90
20233;DHT22;37438;55.674;13.074;2022-09-27T01:10:11;11.10;99.90
20233;DHT22;37438;55.674;13.074;2022-09-27T01:13:26;11.10;99.90
20233;DHT22;37438;55.674;13.074;2022-09-27T01:23:57;11.10;99.90
20233;DHT22;37438;55.674;13.074;2022-09-27T01:27:48;11.10;99.90
20233;DHT22;37438;55.674;13.074;2022-09-27T01:41:42;11.20;99.90
20233;DHT22;37438;55.674;13.074;2022-09-27T01:48:08;11.30;99.90
20233;DHT22;37438;55.674;13.074;2022-09-27T01:51:42;11.30;99.90
20233;DHT22;37438;55.674;13.074;2022-09-27T01:54:52;11.30;99.90
20233;DHT22;37438;55.674;13.074;2022-09-27T02:01:27;11.40;99.90
20233;DHT22;37438;55.674;13.074;2022-09-27T02:04:36;11.50;99.90
20233;DHT22;37438;55.674;13.074;2022-09-27T02:08:04;11.50;99.90
20233;DHT22;37438;55.674;13.074;2022-09-27T02:11:12;11.50;99.90
20233;DHT22;37438;55.674;13.074;2022-09-27T02:20:51;11.60;99.90
20233;DHT22;37438;55.674;13.074;2022-09-27T02:24:01;11.60;99.90
20233;DHT22;37438;55.674;13.074;2022-09-27T02:27:13;11.60;99.90
20233;DHT22;37438;55.674;13.074;2022-09-27T02:30:20;11.60;99.90
20233;DHT22;37438;55.674;13.074;2022-09-27T02:33:39;11.60;99.90
20233;DHT22;37438;55.674;13.074;2022-09-27T02:36:46;11.60;99.90
20233;DHT22;37438;55.674;13.074;2022-09-27T02:39:51;11.60;99.90
20233;DHT22;37438;55.674;13.074;2022-09-27T02:42:56;11.70;99.90
20233;DHT22;37438;55.674;13.074;2022-09-27T03:05:42;11.70;99.90
20233;DHT22;37438;55.674;13.074;2022-09-27T03:08:50;11.70;99.90
20233;DHT22;37438;55.674;13.074;2022-09-27T03:11:54;11.70;99.90
20233;DHT22;37438;55.674;13.074;2022-09-27T03:14:59;11.70;99.90
20233;DHT22;37438;55.674;13.074;2022-09-27T03:18:24;11.70;99.90
20233;DHT22;37438;55.674;13.074;2022-09-27T03:21:51;11.70;99.90
20233;DHT22;37438;55.674;13.074;2022-09-27T03:24:56;11.60;99.90
20233;DHT22;37438;55.674;13.074;2022-09-27T03:28:01;11.60;99.90
20233;DHT22;37438;55.674;13.074;2022-09-27T03:31:05;11.60;99.90
20233;DHT22;37438;55.674;13.074;2022-09-27T03:34:24;11.50;99.90
20233;DHT22;37438;55.674;13.074;2022-09-27T03:37:29;11.50;99.90
20233;DHT22;37438;55.674;13.074;2022-09-27T03:40:34;11.50;99.90
20233;DHT22;37438;55.674;13.074;2022-09-27T03:43:39;11.50;99.90
20233;DHT22;37438;55.674;13.074;2022-09-27T03:46:43;11.50;99.90
20233;DHT22;37438;55.674;13.074;2022-09-27T03:49:48;11.50;99.90
20233;DHT22;37438;55.674;13.074;2022-09-27T03:52:53;11.50;99.90
20233;DHT22;37438;55.674;13.074;2022-09-27T03:55:59;11.50;99.90
20233;DHT22;37438;55.674;13.074;2022-09-27T03:59:03;11.40;99.90
20233;DHT22;37438;55.674;13.074;2022-09-27T04:02:27;11.40;99.90
20233;DHT22;37438;55.674;13.074;2022-09-27T04:05:51;11.40;99.90
20233;DHT22;37438;55.674;13.074;2022-09-27T04:08:59;11.30;99.90
20233;DHT22;37438;55.674;13.074;2022-09-27T04:12:17;11.30;99.90
20233;DHT22;37438;55.674;13.074;2022-09-27T04:15:22;11.30;99.90
20233;DHT22;37438;55.674;13.074;2022-09-27T04:18:26;11.30;99.90
20233;DHT22;37438;55.674;13.074;2022-09-27T04:22:03;11.30;99.90
20233;DHT22;37438;55.674;13.074;2022-09-27T04:25:08;11.30;99.90
20233;DHT22;37438;55.674;13.074;2022-09-27T04:28:15;11.30;99.90
20233;DHT22;37438;55.674;13.074;2022-09-27T04:31:20;11.30;99.90
20233;DHT22;37438;55.674;13.074;2022-09-27T04:34:40;11.30;99.90
20233;DHT22;37438;55.674;13.074;2022-09-27T04:38:04;11.20;99.90
20233;DHT22;37438;55.674;13.074;2022-09-27T04:41:08;11.20;99.90
20233;DHT22;37438;55.674;13.074;2022-09-27T04:44:15;11.20;99.90
20233;DHT22;37438;55.674;13.074;2022-09-27T04:47:25;11.20;99.90
20233;DHT22;37438;55.674;13.074;2022-09-27T04:50:29;11.20;99.90
20233;DHT22;37438;55.674;13.074;2022-09-27T04:53:39;11.30;99.90
20233;DHT22;37438;55.674;13.074;2022-09-27T04:56:44;11.20;99.90
20233;DHT22;37438;55.674;13.074;2022-09-27T04:59:48;11.20;99.90
20233;DHT22;37438;55.674;13.074;2022-09-27T05:02:54;11.20;99.90
20233;DHT22;37438;55.674;13.074;2022-09-27T05:06:29;11.30;99.90
20233;DHT22;37438;55.674;13.074;2022-09-27T05:09:41;11.30;99.90
20233;DHT22;37438;55.674;13.074;2022-09-27T05:12:46;11.30;99.90
20233;DHT22;37438;55.674;13.074;2022-09-27T05:15:52;11.20;99.90
20233;DHT22;37438;55.674;13.074;2022-09-27T05:19:34;11.20;99.90
20233;DHT22;37438;55.674;13.074;2022-09-27T05:23:11;11.20;99.90
20233;DHT22;37438;55.674;13.074;2022-09-27T05:26:15;11.20;99.90
20233;DHT22;37438;55.674;13.074;2022-09-27T05:29:20;11.20;99.90
20233;DHT22;37438;55.674;13.074;2022-09-27T05:32:42;11.20;99.90
20233;DHT22;37438;55.674;13.074;2022-09-27T05:36:02;11.30;99.90
20233;DHT22;37438;55.674;13.074;2022-09-27T05:39:08;11.30;99.90
20233;DHT22;37438;55.674;13.074;2022-09-27T05:42:12;11.30;99.90
20233;DHT22;37438;55.674;13.074;2022-09-27T05:45:20;11.30;99.90
20233;DHT22;37438;55.674;13.074;2022-09-27T05:48:26;11.40;99.90
20233;DHT22;37438;55.674;13.074;2022-09-27T05:51:43;11.50;99.90
20233;DHT22;37438;55.674;13.074;2022-09-27T05:54:48;11.50;99.90
20233;DHT22;37438;55.674;13.074;2022-09-27T05:58:01;11.50;99.90
20233;DHT22;37438;55.674;13.074;2022-09-27T06:01:16;11.50;99.90
20233;DHT22;37438;55.674;13.074;2022-09-27T06:04:40;11.50;99.90
20233;DHT22;37438;55.674;13.074;2022-09-27T06:08:09;11.60;99.90
20233;DHT22;37438;55.674;13.074;2022-09-27T06:11:19;11.60;99.90
20233;DHT22;37438;55.674;13.074;2022-09-27T06:14:25;11.60;99.90
20233;DHT22;37438;55.674;13.074;2022-09-27T06:17:42;11.60;99.90
20233;DHT22;37438;55.674;13.074;2022-09-27T06:20:53;11.60;99.90
20233;DHT22;37438;55.674;13.074;2022-09-27T06:23:58;11.70;99.90
20233;DHT22;37438;55.674;13.074;2022-09-27T06:27:09;11.70;99.90
20233;DHT22;37438;55.674;13.074;2022-09-27T06:30:40;11.70;99.90
20233;DHT22;37438;55.674;13.074;2022-09-27T06:33:55;11.90;99.90
20233;DHT22;37438;55.674;13.074;2022-09-27T06:37:00;11.90;99.90
20233;DHT22;37438;55.674;13.074;2022-09-27T06:40:05;12.00;99.90
20233;DHT22;37438;55.674;13.074;2022-09-27T06:43:31;12.00;99.90
20233;DHT22;37438;55.674;13.074;2022-09-27T06:47:00;12.10;99.90
20233;DHT22;37438;55.674;13.074;2022-09-27T06:50:24;12.20;99.90
20233;DHT22;37438;55.674;13.074;2022-09-27T06:53:29;12.20;99.90
20233;DHT22;37438;55.674;13.074;2022-09-27T06:56:34;12.20;99.90
20233;DHT22;37438;55.674;13.074;2022-09-27T06:59:38;12.30;99.90
20233;DHT22;37438;55.674;13.074;2022-09-27T07:03:24;12.30;99.90
20233;DHT22;37438;55.674;13.074;2022-09-27T07:06:54;12.40;99.90
20233;DHT22;37438;55.674;13.074;2022-09-27T07:10:01;12.50;99.90
20233;DHT22;37438;55.674;13.074;2022-09-27T07:13:11;12.50;99.90
20233;DHT22;37438;55.674;13.074;2022-09-27T07:16:16;12.50;99.90
20233;DHT22;37438;55.674;13.074;2022-09-27T07:19:20;12.60;99.90
20233;DHT22;37438;55.674;13.074;2022-09-27T07:22:26;12.60;99.90
20233;DHT22;37438;55.674;13.074;2022-09-27T07:25:37;12.70;99.90
20233;DHT22;37438;55.674;13.074;2022-09-27T07:28:41;12.60;99.90
20233;DHT22;37438;55.674;13.074;2022-09-27T07:31:50;12.70;99.90
20233;DHT22;37438;55.674;13.074;2022-09-27T07:34:55;12.70;99.90
20233;DHT22;37438;55.674;13.074;2022-09-27T07:37:59;12.70;99.90
20233;DHT22;37438;55.674;13.074;2022-09-27T07:41:10;12.70;99.90
20233;DHT22;37438;55.674;13.074;2022-09-27T07:44:17;12.70;99.90
20233;DHT22;37438;55.674;13.074;2022-09-27T07:47:44;12.80;99.90
20233;DHT22;37438;55.674;13.074;2022-09-27T07:51:11;12.80;99.90
20233;DHT22;37438;55.674;13.074;2022-09-27T07:54:38;12.80;99.90
20233;DHT22;37438;55.674;13.074;2022-09-27T07:58:11;12.70;99.90
20233;DHT22;37438;55.674;13.074;2022-09-27T08:01:17;12.80;99.90
20233;DHT22;37438;55.674;13.074;2022-09-27T08:04:22;12.70;99.90
20233;DHT22;37438;55.674;13.074;2022-09-27T08:07:27;12.80;99.90
20233;DHT22;37438;55.674;13.074;2022-09-27T08:10:32;12.70;99.90
20233;DHT22;37438;55.674;13.074;2022-09-27T08:13:37;12.70;99.90
20233;DHT22;37438;55.674;13.074;2022-09-27T08:16:42;12.70;99.90
20233;DHT22;37438;55.674;13.074;2022-09-27T08:19:50;12.70;99.90
20233;DHT22;37438;55.674;13.074;2022-09-27T08:23:11;12.50;99.90
20233;DHT22;37438;55.674;13.074;2022-09-27T08:26:19;12.30;99.90
20233;DHT22;37438;55.674;13.074;2022-09-27T08:29:39;12.20;99.90
20233;DHT22;37438;55.674;13.074;2022-09-27T08:32:45;12.10;99.90
20233;DHT22;37438;55.674;13.074;2022-09-27T08:35:50;12.10;99.90
20233;DHT22;37438;55.674;13.074;2022-09-27T08:38:55;12.10;99.90
20233;DHT22;37438;55.674;13.074;2022-09-27T08:45:30;12.20;99.90
20233;DHT22;37438;55.674;13.074;2022-09-27T08:48:37;12.30;99.90
20233;DHT22;37438;55.674;13.074;2022-09-27T08:51:44;12.40;99.90
20233;DHT22;37438;55.674;13.074;2022-09-27T08:54:51;12.50;99.90
20233;DHT22;37438;55.674;13.074;2022-09-27T08:57:57;12.50;99.90
20233;DHT22;37438;55.674;13.074;2022-09-27T09:01:09;12.60;99.90
20233;DHT22;37438;55.674;13.074;2022-09-27T09:04:30;12.70;99.90
20233;DHT22;37438;55.674;13.074;2022-09-27T09:11:32;12.70;99.90
20233;DHT22;37438;55.674;13.074;2022-09-27T09:22:28;12.70;99.90
20233;DHT22;37438;55.674;13.074;2022-09-27T09:25:52;12.60;99.90
20233;DHT22;37438;55.674;13.074;2022-09-27T09:35:39;12.40;99.90
20233;DHT22;37438;55.674;13.074;2022-09-27T09:38:53;12.40;99.90
20233;DHT22;37438;55.674;13.074;2022-09-27T09:42:38;12.30;99.90
20233;DHT22;37438;55.674;13.074;2022-09-27T09:45:47;12.20;99.90
20233;DHT22;37438;55.674;13.074;2022-09-27T09:49:42;12.10;99.90
20233;DHT22;37438;55.674;13.074;2022-09-27T09:52:24;12.10;99.90
20233;DHT22;37438;55.674;13.074;2022-09-27T09:55:35;12.00;99.90
20233;DHT22;37438;55.674;13.074;2022-09-27T09:58:45;12.00;99.90
20233;DHT22;37438;55.674;13.074;2022-09-27T10:01:59;12.00;99.90
20233;DHT22;37438;55.674;13.074;2022-09-27T10:05:06;12.00;99.90
20233;DHT22;37438;55.674;13.074;2022-09-27T10:08:17;12.10;99.90
20233;DHT22;37438;55.674;13.074;2022-09-27T10:11:39;12.20;99.90
20233;DHT22;37438;55.674;13.074;2022-09-27T10:14:56;12.30;99.90
20233;DHT22;37438;55.674;13.074;2022-09-27T10:18:01;12.50;99.90
20233;DHT22;37438;55.674;13.074;2022-09-27T10:21:11;12.50;99.90
20233;DHT22;37438;55.674;13.074;2022-09-27T10:24:17;12.60;99.90
20233;DHT22;37438;55.674;13.074;2022-09-27T10:27:46;12.70;99.90
20233;DHT22;37438;55.674;13.074;2022-09-27T10:31:16;12.80;99.90
20233;DHT22;37438;55.674;13.074;2022-09-27T10:34:41;13.00;99.90
20233;DHT22;37438;55.674;13.074;2022-09-27T10:37:46;13.00;99.90
20233;DHT22;37438;55.674;13.074;2022-09-27T10:40:53;13.00;99.90
20233;DHT22;37438;55.674;13.074;2022-09-27T10:44:20;13.00;99.90
20233;DHT22;37438;55.674;13.074;2022-09-27T10:47:35;13.00;99.90
20233;DHT22;37438;55.674;13.074;2022-09-27T10:51:25;12.90;99.90
20233;DHT22;37438;55.674;13.074;2022-09-27T10:54:35;12.80;99.90
20233;DHT22;37438;55.674;13.074;2022-09-27T10:57:47;12.70;99.90
20233;DHT22;37438;55.674;13.074;2022-09-27T11:01:04;12.70;99.90
20233;DHT22;37438;55.674;13.074;2022-09-27T11:07:35;12.70;99.90
20233;DHT22;37438;55.674;13.074;2022-09-27T11:14:21;12.60;99.90
20233;DHT22;37438;55.674;13.074;2022-09-27T11:17:42;12.60;99.90
20233;DHT22;37438;55.674;13.074;2022-09-27T11:50:49;12.50;99.90
20233;DHT22;37438;55.674;13.074;2022-09-27T11:54:18;12.50;99.90
20233;DHT22;37438;55.674;13.074;2022-09-27T12:11:42;12.30;99.90
20233;DHT22;37438;55.674;13.074;2022-09-27T12:14:55;12.30;99.90
20233;DHT22;37438;55.674;13.074;2022-09-27T12:21:24;12.40;99.90
20233;DHT22;37438;55.674;13.074;2022-09-27T12:24:31;12.30;99.90
20233;DHT22;37438;55.674;13.074;2022-09-27T12:28:02;12.30;99.90
20233;DHT22;37438;55.674;13.074;2022-09-27T12:35:17;12.50;99.90
20233;DHT22;37438;55.674;13.074;2022-09-27T12:41:49;12.70;99.90
20233;DHT22;37438;55.674;13.074;2022-09-27T12:45:13;12.90;99.90
20233;DHT22;37438;55.674;13.074;2022-09-27T12:48:34;13.10;99.90
20233;DHT22;37438;55.674;13.074;2022-09-27T13:02:41;13.50;99.90
20233;DHT22;37438;55.674;13.074;2022-09-27T13:06:39;13.50;99.90
20233;DHT22;37438;55.674;13.074;2022-09-27T13:09:54;13.80;99.90
20233;DHT22;37438;55.674;13.074;2022-09-27T13:13:03;13.70;99.90
20233;DHT22;37438;55.674;13.074;2022-09-27T13:16:09;13.40;99.90
20233;DHT22;37438;55.674;13.074;2022-09-27T13:22:39;13.20;99.90
20233;DHT22;37438;55.674;13.074;2022-09-27T13:29:24;13.20;99.90
20233;DHT22;37438;55.674;13.074;2022-09-27T13:32:31;13.00;99.90
20233;DHT22;37438;55.674;13.074;2022-09-27T13:39:28;12.80;99.90
20233;DHT22;37438;55.674;13.074;2022-09-27T13:46:25;12.90;99.90
20233;DHT22;37438;55.674;13.074;2022-09-27T13:49:35;12.90;99.90
20233;DHT22;37438;55.674;13.074;2022-09-27T13:53:06;12.90;99.90
20233;DHT22;37438;55.674;13.074;2022-09-27T13:59:49;12.80;99.90
20233;DHT22;37438;55.674;13.074;2022-09-27T14:03:20;12.50;99.90
20233;DHT22;37438;55.674;13.074;2022-09-27T14:06:31;12.20;99.90
20233;DHT22;37438;55.674;13.074;2022-09-27T14:09:41;12.10;99.90
20233;DHT22;37438;55.674;13.074;2022-09-27T14:12:58;12.00;99.90
20233;DHT22;37438;55.674;13.074;2022-09-27T14:16:05;11.90;99.90
20233;DHT22;37438;55.674;13.074;2022-09-27T14:19:31;11.80;99.90
20233;DHT22;37438;55.674;13.074;2022-09-27T14:22:37;11.80;99.90
20233;DHT22;37438;55.674;13.074;2022-09-27T14:25:48;11.80;99.90
20233;DHT22;37438;55.674;13.074;2022-09-27T14:28:55;11.70;99.90
20233;DHT22;37438;55.674;13.074;2022-09-27T14:32:21;11.80;99.90
20233;DHT22;37438;55.674;13.074;2022-09-27T14:35:33;11.70;99.90
20233;DHT22;37438;55.674;13.074;2022-09-27T14:38:56;11.70;99.90
20233;DHT22;37438;55.674;13.074;2022-09-27T14:42:19;11.70;99.90
20233;DHT22;37438;55.674;13.074;2022-09-27T14:45:29;11.70;99.90
20233;DHT22;37438;55.674;13.074;2022-09-27T14:48:39;11.70;99.90
20233;DHT22;37438;55.674;13.074;2022-09-27T14:51:50;11.70;99.90
20233;DHT22;37438;55.674;13.074;2022-09-27T14:55:06;11.60;99.90
20233;DHT22;37438;55.674;13.074;2022-09-27T14:58:12;11.60;99.90
20233;DHT22;37438;55.674;13.074;2022-09-27T15:01:38;11.70;99.90
20233;DHT22;37438;55.674;13.074;2022-09-27T15:04:45;11.70;99.90
20233;DHT22;37438;55.674;13.074;2022-09-27T15:07:51;11.70;99.90
20233;DHT22;37438;55.674;13.074;2022-09-27T15:10:56;11.80;99.90
20233;DHT22;37438;55.674;13.074;2022-09-27T15:14:03;11.80;99.90
20233;DHT22;37438;55.674;13.074;2022-09-27T15:17:19;11.80;99.90
20233;DHT22;37438;55.674;13.074;2022-09-27T15:20:34;11.80;99.90
20233;DHT22;37438;55.674;13.074;2022-09-27T15:23:41;11.80;99.90
20233;DHT22;37438;55.674;13.074;2022-09-27T15:26:46;11.80;99.90
20233;DHT22;37438;55.674;13.074;2022-09-27T15:29:55;11.70;99.90
20233;DHT22;37438;55.674;13.074;2022-09-27T15:33:01;11.70;99.90
20233;DHT22;37438;55.674;13.074;2022-09-27T15:36:10;11.60;99.90
20233;DHT22;37438;55.674;13.074;2022-09-27T15:39:18;11.60;99.90
20233;DHT22;37438;55.674;13.074;2022-09-27T15:42:24;11.70;99.90
20233;DHT22;37438;55.674;13.074;2022-09-27T15:45:33;11.60;99.90
20233;DHT22;37438;55.674;13.074;2022-09-27T15:48:38;11.70;99.90
20233;DHT22;37438;55.674;13.074;2022-09-27T15:51:45;11.70;99.90
20233;DHT22;37438;55.674;13.074;2022-09-27T15:54:49;11.80;99.90
20233;DHT22;37438;55.674;13.074;2022-09-27T15:57:58;11.80;99.90
20233;DHT22;37438;55.674;13.074;2022-09-27T16:01:05;11.80;99.90
20233;DHT22;37438;55.674;13.074;2022-09-27T16:04:09;11.80;99.90
20233;DHT22;37438;55.674;13.074;2022-09-27T16:07:14;11.80;99.90
20233;DHT22;37438;55.674;13.074;2022-09-27T16:10:34;11.70;99.90
20233;DHT22;37438;55.674;13.074;2022-09-27T16:13:40;11.80;99.90
20233;DHT22;37438;55.674;13.074;2022-09-27T16:16:49;11.80;99.90
20233;DHT22;37438;55.674;13.074;2022-09-27T16:19:54;11.80;99.90
20233;DHT22;37438;55.674;13.074;2022-09-27T16:22:58;11.80;99.90
20233;DHT22;37438;55.674;13.074;2022-09-27T16:26:03;11.80;99.90
20233;DHT22;37438;55.674;13.074;2022-09-27T16:29:10;11.80;99.90
20233;DHT22;37438;55.674;13.074;2022-09-27T16:32:15;11.90;99.90
20233;DHT22;37438;55.674;13.074;2022-09-27T16:35:23;11.80;99.90
20233;DHT22;37438;55.674;13.074;2022-09-27T16:38:28;11.80;99.90
20233;DHT22;37438;55.674;13.074;2022-09-27T16:41:33;11.80;99.90
20233;DHT22;37438;55.674;13.074;2022-09-27T16:44:38;11.80;99.90
20233;DHT22;37438;55.674;13.074;2022-09-27T16:47:43;11.70;99.90
20233;DHT22;37438;55.674;13.074;2022-09-27T16:50:47;11.70;99.90
20233;DHT22;37438;55.674;13.074;2022-09-27T16:54:10;11.70;99.90
20233;DHT22;37438;55.674;13.074;2022-09-27T16:57:17;11.60;99.90
20233;DHT22;37438;55.674;13.074;2022-09-27T17:00:21;11.50;99.90
20233;DHT22;37438;55.674;13.074;2022-09-27T17:03:25;11.50;99.90
20233;DHT22;37438;55.674;13.074;2022-09-27T17:06:31;11.40;99.90
20233;DHT22;37438;55.674;13.074;2022-09-27T17:09:35;11.40;99.90
20233;DHT22;37438;55.674;13.074;2022-09-27T17:12:40;11.30;99.90
20233;DHT22;37438;55.674;13.074;2022-09-27T17:15:44;11.40;99.90
20233;DHT22;37438;55.674;13.074;2022-09-27T17:18:49;11.30;99.90
20233;DHT22;37438;55.674;13.074;2022-09-27T17:21:54;11.30;99.90
20233;DHT22;37438;55.674;13.074;2022-09-27T17:24:58;11.30;99.90
20233;DHT22;37438;55.674;13.074;2022-09-27T17:28:03;11.30;99.90
20233;DHT22;37438;55.674;13.074;2022-09-27T17:31:09;11.30;99.90
20233;DHT22;37438;55.674;13.074;2022-09-27T17:34:13;11.30;99.90
20233;DHT22;37438;55.674;13.074;2022-09-27T17:37:18;11.30;99.90
20233;DHT22;37438;55.674;13.074;2022-09-27T17:40:22;11.30;99.90
20233;DHT22;37438;55.674;13.074;2022-09-27T17:43:27;11.30;99.90
20233;DHT22;37438;55.674;13.074;2022-09-27T17:46:35;11.20;99.90
20233;DHT22;37438;55.674;13.074;2022-09-27T17:49:40;11.20;99.90
20233;DHT22;37438;55.674;13.074;2022-09-27T17:53:03;11.20;99.90
20233;DHT22;37438;55.674;13.074;2022-09-27T17:56:08;11.20;99.90
20233;DHT22;37438;55.674;13.074;2022-09-27T17:59:13;11.20;99.90
20233;DHT22;37438;55.674;13.074;2022-09-27T18:02:19;11.30;99.90
20233;DHT22;37438;55.674;13.074;2022-09-27T18:05:24;11.20;99.90
20233;DHT22;37438;55.674;13.074;2022-09-27T18:08:28;11.20;99.90
20233;DHT22;37438;55.674;13.074;2022-09-27T18:11:36;11.20;99.90
20233;DHT22;37438;55.674;13.074;2022-09-27T18:14:40;11.20;99.90
20233;DHT22;37438;55.674;13.074;2022-09-27T18:17:48;11.20;99.90
20233;DHT22;37438;55.674;13.074;2022-09-27T18:20:52;11.10;99.90
20233;DHT22;37438;55.674;13.074;2022-09-27T18:23:59;11.20;99.90
20233;DHT22;37438;55.674;13.074;2022-09-27T18:27:06;11.20;99.90
20233;DHT22;37438;55.674;13.074;2022-09-27T18:30:10;11.20;99.90
20233;DHT22;37438;55.674;13.074;2022-09-27T18:33:15;11.20;99.90
20233;DHT22;37438;55.674;13.074;2022-09-27T18:36:24;11.30;99.90
20233;DHT22;37438;55.674;13.074;2022-09-27T18:39:29;11.30;99.90
20233;DHT22;37438;55.674;13.074;2022-09-27T18:42:33;11.20;99.90
20233;DHT22;37438;55.674;13.074;2022-09-27T18:45:38;11.20;99.90
20233;DHT22;37438;55.674;13.074;2022-09-27T18:48:42;11.30;99.90
20233;DHT22;37438;55.674;13.074;2022-09-27T18:51:47;11.20;99.90
20233;DHT22;37438;55.674;13.074;2022-09-27T18:54:52;11.20;99.90
20233;DHT22;37438;55.674;13.074;2022-09-27T18:57:57;11.20;99.90
20233;DHT22;37438;55.674;13.074;2022-09-27T19:01:04;11.20;99.90
20233;DHT22;37438;55.674;13.074;2022-09-27T19:04:12;11.20;99.90
20233;DHT22;37438;55.674;13.074;2022-09-27T19:07:17;11.10;99.90
20233;DHT22;37438;55.674;13.074;2022-09-27T19:10:21;11.10;99.90
20233;DHT22;37438;55.674;13.074;2022-09-27T19:13:26;11.10;99.90
20233;DHT22;37438;55.674;13.074;2022-09-27T19:16:38;11.10;99.90
20233;DHT22;37438;55.674;13.074;2022-09-27T19:19:42;11.10;99.90
20233;DHT22;37438;55.674;13.074;2022-09-27T19:22:46;11.00;99.90
20233;DHT22;37438;55.674;13.074;2022-09-27T19:25:51;11.00;99.90
20233;DHT22;37438;55.674;13.074;2022-09-27T19:28:55;11.10;99.90
20233;DHT22;37438;55.674;13.074;2022-09-27T19:32:02;11.10;99.90
20233;DHT22;37438;55.674;13.074;2022-09-27T19:35:06;11.00;99.90
20233;DHT22;37438;55.674;13.074;2022-09-27T19:38:11;11.00;99.90
20233;DHT22;37438;55.674;13.074;2022-09-27T19:41:16;11.00;99.90
20233;DHT22;37438;55.674;13.074;2022-09-27T19:44:20;11.00;99.90
20233;DHT22;37438;55.674;13.074;2022-09-27T19:47:24;11.00;99.90
20233;DHT22;37438;55.674;13.074;2022-09-27T19:50:29;11.00;99.90
20233;DHT22;37438;55.674;13.074;2022-09-27T19:53:34;11.00;99.90
20233;DHT22;37438;55.674;13.074;2022-09-27T19:56:38;11.00;99.90
20233;DHT22;37438;55.674;13.074;2022-09-27T19:59:43;11.00;99.90
20233;DHT22;37438;55.674;13.074;2022-09-27T20:02:47;11.00;99.90
20233;DHT22;37438;55.674;13.074;2022-09-27T20:05:53;11.00;99.90
20233;DHT22;37438;55.674;13.074;2022-09-27T20:08:58;11.00;99.90
20233;DHT22;37438;55.674;13.074;2022-09-27T20:12:06;11.00;99.90
20233;DHT22;37438;55.674;13.074;2022-09-27T20:15:10;10.90;99.90
20233;DHT22;37438;55.674;13.074;2022-09-27T20:18:15;10.90;99.90
20233;DHT22;37438;55.674;13.074;2022-09-27T20:21:21;10.90;99.90
20233;DHT22;37438;55.674;13.074;2022-09-27T20:24:26;10.90;99.90
20233;DHT22;37438;55.674;13.074;2022-09-27T20:27:31;10.80;99.90
20233;DHT22;37438;55.674;13.074;2022-09-27T20:30:35;10.90;99.90
20233;DHT22;37438;55.674;13.074;2022-09-27T20:33:40;10.90;99.90
20233;DHT22;37438;55.674;13.074;2022-09-27T20:36:44;10.90;99.90
20233;DHT22;37438;55.674;13.074;2022-09-27T20:39:49;10.90;99.90
20233;DHT22;37438;55.674;13.074;2022-09-27T20:42:53;10.90;99.90
20233;DHT22;37438;55.674;13.074;2022-09-27T20:46:06;10.90;99.90
20233;DHT22;37438;55.674;13.074;2022-09-27T20:49:13;10.90;99.90
20233;DHT22;37438;55.674;13.074;2022-09-27T20:52:19;10.90;99.90
20233;DHT22;37438;55.674;13.074;2022-09-27T20:55:23;10.90;99.90
20233;DHT22;37438;55.674;13.074;2022-09-27T20:58:30;11.00;99.90
20233;DHT22;37438;55.674;13.074;2022-09-27T21:01:34;11.00;99.90
20233;DHT22;37438;55.674;13.074;2022-09-27T21:04:39;11.00;99.90
20233;DHT22;37438;55.674;13.074;2022-09-27T21:07:44;11.00;99.90
20233;DHT22;37438;55.674;13.074;2022-09-27T21:10:49;11.00;99.90
20233;DHT22;37438;55.674;13.074;2022-09-27T21:13:56;11.00;99.90
20233;DHT22;37438;55.674;13.074;2022-09-27T21:17:00;11.00;99.90
20233;DHT22;37438;55.674;13.074;2022-09-27T21:20:05;11.00;99.90
20233;DHT22;37438;55.674;13.074;2022-09-27T21:23:09;11.00;99.90
20233;DHT22;37438;55.674;13.074;2022-09-27T21:26:16;10.90;99.90
20233;DHT22;37438;55.674;13.074;2022-09-27T21:29:21;11.00;99.90
20233;DHT22;37438;55.674;13.074;2022-09-27T21:32:26;11.00;99.90
20233;DHT22;37438;55.674;13.074;2022-09-27T21:35:31;11.00;99.90
20233;DHT22;37438;55.674;13.074;2022-09-27T21:38:35;10.90;99.90
20233;DHT22;37438;55.674;13.074;2022-09-27T21:41:39;11.00;99.90
20233;DHT22;37438;55.674;13.074;2022-09-27T21:44:44;10.90;99.90
20233;DHT22;37438;55.674;13.074;2022-09-27T21:47:48;10.90;99.90
20233;DHT22;37438;55.674;13.074;2022-09-27T21:50:53;10.90;99.90
20233;DHT22;37438;55.674;13.074;2022-09-27T21:53:59;10.90;99.90
20233;DHT22;37438;55.674;13.074;2022-09-27T21:57:03;10.90;99.90
20233;DHT22;37438;55.674;13.074;2022-09-27T22:00:08;10.90;99.90
20233;DHT22;37438;55.674;13.074;2022-09-27T22:03:13;10.90;99.90
20233;DHT22;37438;55.674;13.074;2022-09-27T22:06:19;11.00;99.90
20233;DHT22;37438;55.674;13.074;2022-09-27T22:09:24;10.90;99.90
20233;DHT22;37438;55.674;13.074;2022-09-27T22:12:28;11.00;99.90
20233;DHT22;37438;55.674;13.074;2022-09-27T22:15:37;10.90;99.90
20233;DHT22;37438;55.674;13.074;2022-09-27T22:18:46;10.90;99.90
20233;DHT22;37438;55.674;13.074;2022-09-27T22:21:51;10.90;99.90
20233;DHT22;37438;55.674;13.074;2022-09-27T22:24:55;10.90;99.90
20233;DHT22;37438;55.674;13.074;2022-09-27T22:27:59;11.00;99.90